Latest Weather Observations for Sellicks Hill

IDS60801

Issued at 7:11 am CDT Tuesday 13 November 2018 (issued every 10 minutes, with the page automatically refreshed every 10 minutes)

About weather observations | Map of weather stations | Latest weather observations for SA | Other Formats
Station Details ID: 023886 Name: MOUNT TERRIBLE RADAR Lat: -35.33 Lon: 138.50 Height: 385.7 m
Data from the previous 72 hours. | See also: Recent months for locations in South Australia
Date/Time
CDT
Temp
°C
App
Temp
°C
Dew
Point
°C
Rel
Hum
%
Delta-T
°C
Wind Press
QNH
hPa
Press
MSL
hPa
Rain since
9am
mm
Dir  Spd
km/h
Gust
km/h
Spd
kts
Gust
kts
13/07:00am - - - - - SSE 11 17 6 9 - - -
13/06:30am - - - - - S 15 17 8 9 - - -
13/06:00am - - - - - S 11 17 6 9 - - -
13/05:30am - - - - - S 11 15 6 8 - - -
13/05:00am - - - - - S 7 13 4 7 - - -
13/04:30am - - - - - WSW 7 13 4 7 - - -
13/04:00am - - - - - WSW 7 11 4 6 - - -
13/03:30am - - - - - WSW 6 13 3 7 - - -
13/03:00am - - - - - NNW 7 15 4 8 - - -
13/02:30am - - - - - N 7 13 4 7 - - -
13/02:00am - - - - - NNE 11 19 6 10 - - -
13/01:30am - - - - - NNE 11 22 6 12 - - -
13/01:00am - - - - - N 11 20 6 11 - - -
13/12:30am - - - - - N 11 19 6 10 - - -
13/12:00am - - - - - N 9 17 5 9 - - -
 
Date/Time
CDT
Temp
°C
App
Temp
°C
Dew
Point
°C
Rel
Hum
%
Delta-T
°C
Wind Press
QNH
hPa
Press
MSL
hPa
Rain since
9am
mm
Dir  Spd
km/h
Gust
km/h
Spd
kts
Gust
kts
12/11:30pm - - - - - NNE 9 17 5 9 - - -
12/11:00pm - - - - - NNE 9 17 5 9 - - -
12/10:30pm - - - - - E 2 6 1 3 - - -
12/10:00pm - - - - - NE 6 9 3 5 - - -
12/09:30pm - - - - - CALM 0 6 0 3 - - -
12/09:00pm - - - - - WSW 2 6 1 3 - - -
12/08:30pm - - - - - WNW 4 9 2 5 - - -
12/08:00pm - - - - - SW 7 15 4 8 - - -
12/07:30pm - - - - - W 4 7 2 4 - - -
12/07:00pm - - - - - WNW 7 13 4 7 - - -
12/06:30pm - - - - - W 6 13 3 7 - - -
12/06:00pm - - - - - W 6 11 3 6 - - -
12/05:30pm - - - - - W 6 15 3 8 - - -
12/05:00pm - - - - - SW 6 13 3 7 - - -
12/04:30pm - - - - - WSW 13 26 7 14 - - -
12/04:00pm - - - - - W 11 26 6 14 - - -
12/03:30pm - - - - - NNW 15 22 8 12 - - -
12/03:00pm - - - - - NNW 15 28 8 15 - - -
12/02:30pm - - - - - NNW 19 30 10 16 - - -
12/02:00pm - - - - - NNW 19 35 10 19 - - -
12/01:30pm - - - - - NNW 17 28 9 15 - - -
12/01:00pm - - - - - NNW 20 39 11 21 - - -
12/12:30pm - - - - - NNW 19 30 10 16 - - -
12/12:00pm - - - - - NNW 20 39 11 21 - - -
12/11:30am - - - - - NNW 19 35 10 19 - - -
12/11:00am - - - - - NNW 20 35 11 19 - - -
12/10:30am - - - - - NNW 17 28 9 15 - - -
12/10:00am - - - - - N 11 19 6 10 - - -
12/09:30am - - - - - N 9 15 5 8 - - -
12/09:00am - - - - - N 11 20 6 11 - - -
12/08:30am - - - - - N 11 22 6 12 - - -
12/08:00am - - - - - N 11 20 6 11 - - -
12/07:30am - - - - - NNE 13 22 7 12 - - -
12/07:00am - - - - - N 11 20 6 11 - - -
12/06:30am - - - - - N 11 20 6 11 - - -
12/06:00am - - - - - NNE 11 20 6 11 - - -
12/05:30am - - - - - N 13 22 7 12 - - -
12/05:00am - - - - - N 15 28 8 15 - - -
12/04:30am - - - - - N 15 28 8 15 - - -
12/04:00am - - - - - NE 20 39 11 21 - - -
12/03:30am - - - - - ENE 28 37 15 20 - - -
12/03:00am - - - - - ENE 28 35 15 19 - - -
12/02:30am - - - - - E 28 39 15 21 - - -
12/02:00am - - - - - E 32 44 17 24 - - -
12/01:30am - - - - - E 28 39 15 21 - - -
12/01:00am - - - - - E 33 43 18 23 - - -
12/12:30am - - - - - E 30 39 16 21 - - -
12/12:00am - - - - - E 30 39 16 21 - - -
 
Date/Time
CDT
Temp
°C
App
Temp
°C
Dew
Point
°C
Rel
Hum
%
Delta-T
°C
Wind Press
QNH
hPa
Press
MSL
hPa
Rain since
9am
mm
Dir  Spd
km/h
Gust
km/h
Spd
kts
Gust
kts
11/11:30pm - - - - - E 28 37 15 20 - - -
11/11:00pm - - - - - E 28 37 15 20 - - -
11/10:30pm - - - - - E 26 33 14 18 - - -
11/10:00pm - - - - - ESE 22 30 12 16 - - -
11/09:30pm - - - - - SE 20 24 11 13 - - -
11/09:00pm - - - - - ESE 19 24 10 13 - - -
11/08:30pm - - - - - SE 17 19 9 10 - - -
11/08:00pm - - - - - SE 17 19 9 10 - - -
11/07:30pm - - - - - SE 15 17 8 9 - - -
11/07:00pm - - - - - SE 17 20 9 11 - - -
11/06:30pm - - - - - SE 17 22 9 12 - - -
11/06:00pm - - - - - E 6 13 3 7 - - -
11/05:30pm - - - - - NNW 6 9 3 5 - - -
11/05:00pm - - - - - NNW 6 13 3 7 - - -
11/04:30pm - - - - - NNW 7 15 4 8 - - -
11/04:00pm - - - - - NW 9 19 5 10 - - -
11/03:30pm - - - - - NW 9 17 5 9 - - -
11/03:00pm - - - - - NNW 9 17 5 9 - - -
11/02:30pm - - - - - NNW 6 11 3 6 - - -
11/02:00pm - - - - - NNW 7 13 4 7 - - -
11/01:30pm - - - - - NNW 7 17 4 9 - - -
11/01:00pm - - - - - NNW 7 13 4 7 - - -
11/12:30pm - - - - - NNW 7 13 4 7 - - -
11/12:00pm - - - - - NNW 6 9 3 5 - - -
11/11:30am - - - - - NNW 4 11 2 6 - - -
11/11:00am - - - - - NNE 6 13 3 7 - - -
11/10:30am - - - - - NE 7 15 4 8 - - -
11/10:00am - - - - - NNE 7 15 4 8 - - -
11/09:30am - - - - - ENE 11 17 6 9 - - -
11/09:00am - - - - - E 15 20 8 11 - - -
11/08:30am - - - - - E 17 22 9 12 - - -
11/08:00am - - - - - E 19 28 10 15 - - -
11/07:30am - - - - - E 24 33 13 18 - - -
11/07:00am - - - - - ESE 22 33 12 18 - - -
11/06:30am - - - - - ESE 20 30 11 16 - - -
11/06:00am - - - - - ESE 22 33 12 18 - - -
11/05:30am - - - - - ESE 24 35 13 19 - - -
11/05:00am - - - - - ESE 22 35 12 19 - - -
11/04:30am - - - - - E 28 37 15 20 - - -
11/04:00am - - - - - ESE 20 30 11 16 - - -
11/03:30am - - - - - ESE 19 28 10 15 - - -
11/03:00am - - - - - ESE 22 28 12 15 - - -
11/02:30am - - - - - SE 22 30 12 16 - - -
11/02:00am - - - - - SE 28 32 15 17 - - -
11/01:30am - - - - - SE 28 35 15 19 - - -
11/01:00am - - - - - SE 30 37 16 20 - - -
11/12:30am - - - - - SE 30 35 16 19 - - -
11/12:00am - - - - - SE 30 33 16 18 - - -
 
Date/Time
CDT
Temp
°C
App
Temp
°C
Dew
Point
°C
Rel
Hum
%
Delta-T
°C
Wind Press
QNH
hPa
Press
MSL
hPa
Rain since
9am
mm
Dir  Spd
km/h
Gust
km/h
Spd
kts
Gust
kts
10/11:30pm - - - - - SE 28 33 15 18 - - -
10/11:00pm - - - - - SE 28 32 15 17 - - -
10/10:30pm - - - - - SE 26 32 14 17 - - -
10/10:00pm - - - - - SE 26 30 14 16 - - -
10/09:30pm - - - - - SSE 28 32 15 17 - - -
10/09:00pm - - - - - SSE 28 32 15 17 - - -
10/08:30pm - - - - - SSE 26 30 14 16 - - -
10/08:00pm - - - - - SSE 26 32 14 17 - - -
10/07:30pm - - - - - SSE 20 26 11 14 - - -
10/07:00pm - - - - - SSE 17 20 9 11 - - -
10/06:30pm - - - - - W 6 13 3 7 - - -
10/06:00pm - - - - - WNW 6 13 3 7 - - -
10/05:30pm - - - - - W 6 17 3 9 - - -
10/05:00pm - - - - - W 6 11 3 6 - - -
10/04:30pm - - - - - WNW 6 13 3 7 - - -
10/04:00pm - - - - - WNW 6 13 3 7 - - -
10/03:30pm - - - - - W 6 13 3 7 - - -
10/03:00pm - - - - - W 6 13 3 7 - - -
10/02:30pm - - - - - WNW 6 15 3 8 - - -
10/02:00pm - - - - - NW 6 13 3 7 - - -
10/01:30pm - - - - - NW 7 15 4 8 - - -
10/01:00pm - - - - - NW 7 17 4 9 - - -
10/12:30pm - - - - - WNW 6 13 3 7 - - -
10/12:00pm - - - - - NW 7 13 4 7 - - -
10/11:30am - - - - - NW 7 15 4 8 - - -
10/11:00am - - - - - NNW 7 11 4 6 - - -
10/10:30am - - - - - NNW 9 19 5 10 - - -
10/10:00am - - - - - NNW 7 13 4 7 - - -
10/09:30am - - - - - NNW 6 13 3 7 - - -
10/09:00am - - - - - NNW 4 9 2 5 - - -
10/08:30am - - - - - NNE 4 7 2 4 - - -
10/08:00am - - - - - ENE 4 6 2 3 - - -
10/07:30am - - - - - ESE 7 11 4 6 - - -

Other Formats:

Comma delimited format used in spreadsheet applications
http://www.bom.gov.au/fwo/IDS60801/IDS60801.95679.axf

JavaScript Object Notation format (JSON) in row-major order
http://www.bom.gov.au/fwo/IDS60801/IDS60801.95679.json